Time;durP1;ratioP1;P1;durP2;ratioP2;P2;SDS_P1;SDS_P2;PMS_P1;PMS_P2;Temp;Humidity;BMP_temperature;BMP_pressure;BME280_temperature;BME280_humidity;BME280_pressure;Samples;Min_cycle;Max_cycle;Signal;HPM_P1;HPM_P2
2022/03/10 00:02:10;;;;;;;50.83;18.07;;;1.30;1.00;;;;;;4398149;28;659947;-71
2022/03/10 00:04:58;;;;;;;44.77;14.97;;;1.30;1.00;;;;;;4375481;28;659304;-71
2022/03/10 00:07:47;;;;;;;38.20;13.67;;;1.30;1.00;;;;;;4380637;28;658513;-71
2022/03/10 00:10:42;;;;;;;31.40;13.10;;;1.30;1.00;;;;;;4397492;28;659423;-71
2022/03/10 00:13:34;;;;;;;32.37;13.00;;;1.20;1.00;;;;;;4377241;28;658363;-71
2022/03/10 00:16:23;;;;;;;36.33;14.03;;;1.20;1.00;;;;;;4379579;28;658866;-71
2022/03/10 00:19:14;;;;;;;30.27;12.48;;;1.10;1.00;;;;;;4379340;28;658758;-70
2022/03/10 00:22:05;;;;;;;33.23;13.37;;;1.10;1.00;;;;;;4375383;28;659729;-71
2022/03/10 00:24:56;;;;;;;35.93;14.33;;;1.10;1.00;;;;;;4375363;28;659764;-71
2022/03/10 00:27:46;;;;;;;28.83;11.07;;;1.10;1.00;;;;;;4375258;28;658507;-71
2022/03/10 00:30:33;;;;;;;32.60;12.40;;;1.00;1.00;;;;;;4375195;28;660004;-71
2022/03/10 00:33:22;;;;;;;27.83;12.33;;;1.00;1.00;;;;;;4378676;28;659411;-70
2022/03/10 00:36:11;;;;;;;28.80;12.27;;;0.90;1.00;;;;;;4395615;28;658602;-71
2022/03/10 00:38:58;;;;;;;44.63;16.20;;;0.90;1.00;;;;;;4369921;28;660241;-71
2022/03/10 00:41:46;;;;;;;46.83;15.53;;;0.90;1.00;;;;;;4378844;28;659219;-71
2022/03/10 00:44:34;;;;;;;38.77;14.60;;;0.90;1.00;;;;;;4397393;28;659751;-71
2022/03/10 00:47:21;;;;;;;35.20;13.20;;;0.80;1.00;;;;;;4378174;28;659174;-71
2022/03/10 00:50:09;;;;;;;28.57;11.47;;;0.80;1.00;;;;;;4397267;28;659346;-71
2022/03/10 00:52:59;;;;;;;37.77;13.60;;;0.80;1.00;;;;;;4378941;28;658953;-71
2022/03/10 00:55:47;;;;;;;33.50;13.20;;;0.70;1.00;;;;;;4375412;28;658498;-70
2022/03/10 00:58:40;;;;;;;37.40;12.57;;;0.70;1.00;;;;;;4396482;28;658906;-70
2022/03/10 01:01:29;;;;;;;26.57;10.13;;;0.70;1.00;;;;;;4351799;28;659416;-71
2022/03/10 01:04:21;;;;;;;32.37;13.37;;;0.60;1.00;;;;;;4377322;28;658371;-71
2022/03/10 01:07:09;;;;;;;35.27;14.43;;;0.60;1.00;;;;;;4374200;28;658440;-71
2022/03/10 01:09:58;;;;;;;34.57;13.37;;;0.60;1.00;;;;;;4378398;28;658851;-71
2022/03/10 01:12:46;;;;;;;28.50;10.53;;;0.60;1.00;;;;;;4378192;28;658704;-71
2022/03/10 01:15:33;;;;;;;51.47;16.10;;;0.60;1.00;;;;;;4397124;28;659278;-70
2022/03/10 01:18:21;;;;;;;35.90;13.70;;;0.60;1.00;;;;;;4378267;28;658863;-70
2022/03/10 01:21:08;;;;;;;32.57;13.13;;;0.60;1.00;;;;;;4401074;28;660373;-70
2022/03/10 01:23:55;;;;;;;28.42;10.98;;;0.50;1.00;;;;;;4378195;28;658524;-71
2022/03/10 01:26:44;;;;;;;30.07;11.37;;;0.50;1.00;;;;;;4396733;28;660391;-70
2022/03/10 01:29:32;;;;;;;32.60;12.20;;;0.50;1.00;;;;;;4378415;28;658738;-70
2022/03/10 01:32:19;;;;;;;46.87;14.40;;;0.50;1.00;;;;;;4395637;28;658639;-70
2022/03/10 01:35:07;;;;;;;39.23;13.37;;;0.50;1.00;;;;;;4377888;28;658975;-71
2022/03/10 01:37:57;;;;;;;120.57;30.07;;;0.40;1.00;;;;;;4392892;28;658686;-71
2022/03/10 01:40:47;;;;;;;33.80;13.60;;;0.50;1.00;;;;;;4398769;28;659024;-71
2022/03/10 01:43:57;;;;;;;66.00;20.13;;;0.50;1.00;;;;;;4373549;28;658930;-71
2022/03/10 01:46:46;;;;;;;60.67;18.60;;;0.50;1.00;;;;;;4373612;28;658613;-71
2022/03/10 01:49:35;;;;;;;151.87;42.33;;;0.50;1.00;;;;;;4373867;28;659610;-71
2022/03/10 01:52:26;;;;;;;73.77;24.57;;;0.50;1.00;;;;;;4376863;28;660949;-71
2022/03/10 01:55:15;;;;;;;62.83;23.37;;;0.50;1.00;;;;;;4373249;28;659765;-71
2022/03/10 01:58:03;;;;;;;29.00;11.20;;;0.50;1.00;;;;;;4372585;28;659804;-71
2022/03/10 02:00:57;;;;;;;82.97;29.07;;;0.50;1.00;;;;;;4377367;28;659278;-71
2022/03/10 02:03:51;;;;;;;25.53;11.47;;;0.50;1.00;;;;;;4349534;28;658908;-71
2022/03/10 02:06:42;;;;;;;61.40;21.00;;;0.50;1.00;;;;;;4372525;28;658947;-71
2022/03/10 02:12:39;;;;;;;29.57;9.67;;;0.30;1.00;;;;;;4383543;28;659797;-71
2022/03/10 02:18:37;;;;;;;31.07;13.63;;;0.20;99.90;;;;;;4371126;28;661248;-71
2022/03/10 02:21:27;;;;;;;63.10;23.77;;;0.10;99.90;;;;;;4365683;28;660457;-71
2022/03/10 02:24:17;;;;;;;56.53;18.53;;;0.10;99.90;;;;;;4394444;28;659884;-71
2022/03/10 02:27:18;;;;;;;65.03;15.97;;;0.00;99.90;;;;;;4372110;28;659990;-71
2022/03/10 02:30:09;;;;;;;21.80;8.60;;;0.00;99.90;;;;;;4353388;28;659833;-71
2022/03/10 02:32:58;;;;;;;20.47;8.23;;;0.00;99.90;;;;;;4373727;28;658696;-71
2022/03/10 02:35:46;;;;;;;83.93;29.10;;;0.00;1.00;;;;;;4381665;28;659062;-71
2022/03/10 02:38:36;;;;;;;43.30;17.83;;;0.00;1.00;;;;;;4396215;28;659562;-71
2022/03/10 02:41:26;;;;;;;63.43;22.20;;;-0.10;1.00;;;;;;4373181;28;659828;-71
2022/03/10 02:44:15;;;;;;;24.27;8.80;;;-0.10;1.00;;;;;;4371814;28;660642;-71
2022/03/10 02:47:05;;;;;;;41.03;12.43;;;-0.10;1.00;;;;;;4372873;28;659113;-71
2022/03/10 02:49:53;;;;;;;42.40;14.63;;;-0.10;1.00;;;;;;4371956;28;660548;-71
2022/03/10 02:52:42;;;;;;;24.50;8.90;;;-0.10;1.00;;;;;;4375946;28;659895;-71
2022/03/10 02:55:34;;;;;;;26.50;9.63;;;0.00;1.00;;;;;;4390355;28;658698;-71
2022/03/10 02:58:30;;;;;;;61.47;20.20;;;0.00;1.00;;;;;;4377573;28;657515;-71
2022/03/10 03:01:19;;;;;;;31.33;12.57;;;-0.10;1.00;;;;;;4350228;28;660320;-71
2022/03/10 03:04:14;;;;;;;20.80;8.63;;;-0.10;1.00;;;;;;4371842;28;660929;-71
2022/03/10 03:07:08;;;;;;;35.77;12.37;;;-0.10;1.00;;;;;;4371460;28;658773;-71
2022/03/10 03:09:59;;;;;;;40.10;12.63;;;-0.10;1.00;;;;;;4342725;28;660489;-71
2022/03/10 03:12:53;;;;;;;19.17;7.87;;;-0.20;1.00;;;;;;4374160;28;660776;-71
2022/03/10 03:15:50;;;;;;;28.92;11.45;;;-0.10;1.00;;;;;;4357321;28;659026;-71
2022/03/10 03:18:42;;;;;;;68.83;19.40;;;-0.20;1.00;;;;;;4374934;28;660543;-71
2022/03/10 03:21:31;;;;;;;20.57;8.80;;;-0.20;1.00;;;;;;4377677;28;659439;-71
2022/03/10 03:24:20;;;;;;;24.10;9.20;;;-0.20;1.00;;;;;;4377251;28;659400;-71
2022/03/10 03:27:11;;;;;;;36.80;10.97;;;-0.20;1.00;;;;;;4375239;28;659602;-71
2022/03/10 03:30:06;;;;;;;11.20;4.83;;;-0.20;1.00;;;;;;4374684;28;660285;-71
2022/03/10 03:32:58;;;;;;;20.77;7.80;;;-0.30;99.90;;;;;;4377094;28;659206;-71
2022/03/10 03:35:51;;;;;;;24.63;7.83;;;-0.30;99.90;;;;;;4352107;28;660152;-71
2022/03/10 03:38:44;;;;;;;14.48;5.50;;;-0.40;99.90;;;;;;4363358;28;661094;-71
2022/03/10 03:41:38;;;;;;;24.57;8.43;;;-0.50;99.90;;;;;;4354196;28;659848;-71
2022/03/10 03:44:30;;;;;;;14.70;6.93;;;-0.60;99.90;;;;;;4354130;28;659859;-71
2022/03/10 03:47:24;;;;;;;18.57;7.23;;;-0.70;99.90;;;;;;4378650;28;661475;-71
2022/03/10 03:50:23;;;;;;;49.80;16.77;;;-0.70;99.90;;;;;;4355490;28;659648;-71
2022/03/10 03:53:17;;;;;;;26.00;9.63;;;-0.80;99.90;;;;;;4353533;28;660847;-71
2022/03/10 03:56:06;;;;;;;31.10;11.37;;;-0.90;99.90;;;;;;4357085;28;660087;-71
2022/03/10 03:58:55;;;;;;;20.27;7.67;;;-1.00;99.90;;;;;;4349952;28;661528;-71
2022/03/10 04:01:47;;;;;;;21.83;8.70;;;-1.10;99.90;;;;;;4357312;28;660841;-70
2022/03/10 04:04:36;;;;;;;21.03;9.07;;;-1.10;99.90;;;;;;4357145;28;659786;-71
2022/03/10 04:07:28;;;;;;;16.30;7.40;;;-1.20;99.90;;;;;;4354629;28;660206;-71
2022/03/10 04:10:19;;;;;;;18.83;7.82;;;-1.20;99.90;;;;;;4339740;28;660050;-71
2022/03/10 04:13:12;;;;;;;21.00;8.47;;;-1.40;99.90;;;;;;4360554;28;660482;-71
2022/03/10 04:16:04;;;;;;;16.13;7.20;;;-1.40;99.90;;;;;;4355573;28;659728;-71
2022/03/10 04:18:52;;;;;;;16.13;7.47;;;-1.50;99.90;;;;;;4336383;28;659752;-71
2022/03/10 04:21:39;;;;;;;14.23;6.53;;;-1.60;99.90;;;;;;4379814;28;660289;-71
2022/03/10 04:24:28;;;;;;;14.50;6.97;;;-1.60;1.00;;;;;;4360045;28;659714;-71
2022/03/10 04:27:16;;;;;;;13.18;6.18;;;-1.70;1.00;;;;;;4366568;28;658502;-71
2022/03/10 04:30:04;;;;;;;12.70;6.50;;;-1.80;1.00;;;;;;4380447;28;659640;-71
2022/03/10 04:32:51;;;;;;;15.00;6.20;;;-1.80;1.00;;;;;;4361862;28;658625;-71
2022/03/10 04:35:39;;;;;;;13.17;6.40;;;-1.90;1.00;;;;;;4379641;28;659377;-71
2022/03/10 04:38:26;;;;;;;11.37;6.27;;;-1.90;67.70;;;;;;4360725;28;658812;-71
2022/03/10 04:41:15;;;;;;;13.57;6.47;;;-2.00;99.90;;;;;;4377532;28;661205;-71
2022/03/10 04:44:03;;;;;;;13.37;6.37;;;-2.10;99.90;;;;;;4355093;28;660362;-71
2022/03/10 04:46:56;;;;;;;15.90;7.10;;;-2.10;99.90;;;;;;4377882;28;659615;-71
2022/03/10 04:49:44;;;;;;;16.37;6.73;;;-2.20;99.90;;;;;;4349061;28;660625;-71
2022/03/10 04:52:31;;;;;;;14.20;7.10;;;-2.20;99.90;;;;;;4359871;28;660388;-71
2022/03/10 04:55:19;;;;;;;15.00;7.27;;;-2.30;1.00;;;;;;4378743;28;660920;-71
2022/03/10 04:58:39;;;;;;;18.13;7.37;;;-2.30;1.00;;;;;;4374529;28;658636;-71
2022/03/10 05:01:26;;;;;;;15.63;7.13;;;-2.40;1.00;;;;;;4356691;28;658835;-71
2022/03/10 05:04:13;;;;;;;14.10;7.23;;;-2.40;1.00;;;;;;4398313;28;660198;-71
2022/03/10 05:07:01;;;;;;;15.98;8.02;;;-2.50;1.00;;;;;;4384268;28;658976;-71
2022/03/10 05:09:48;;;;;;;18.73;8.40;;;-2.50;1.00;;;;;;4398248;28;660066;-71
2022/03/10 05:12:44;;;;;;;15.75;7.82;;;-2.60;1.00;;;;;;4379322;28;658702;-71
2022/03/10 05:15:33;;;;;;;15.17;7.70;;;-2.60;1.00;;;;;;4378585;28;659413;-71
2022/03/10 05:18:21;;;;;;;15.30;7.33;;;-2.60;1.00;;;;;;4389483;28;658469;-71
2022/03/10 05:21:08;;;;;;;14.50;7.80;;;-2.60;1.00;;;;;;4397404;28;660558;-71
2022/03/10 05:23:56;;;;;;;13.50;6.78;;;-2.70;1.00;;;;;;4378911;28;659899;-71
2022/03/10 05:26:43;;;;;;;17.60;8.23;;;-2.70;1.00;;;;;;4396843;28;659231;-71
2022/03/10 05:29:31;;;;;;;14.40;7.37;;;-2.70;1.00;;;;;;4377016;28;658340;-71
2022/03/10 05:32:20;;;;;;;21.13;8.60;;;-2.70;1.00;;;;;;4395782;28;660310;-70
2022/03/10 05:35:08;;;;;;;20.93;8.23;;;-2.60;1.00;;;;;;4377919;28;659272;-72
2022/03/10 05:37:56;;;;;;;17.50;7.60;;;-2.60;1.00;;;;;;4377249;28;658511;-72
2022/03/10 05:40:44;;;;;;;18.30;7.83;;;-2.70;1.00;;;;;;4394007;28;658918;-72
2022/03/10 05:43:31;;;;;;;16.37;7.83;;;-2.60;1.00;;;;;;4377657;28;658397;-70
2022/03/10 05:46:18;;;;;;;16.67;7.90;;;-2.60;1.00;;;;;;4396969;28;659415;-72
2022/03/10 05:49:08;;;;;;;20.60;7.80;;;-2.50;1.00;;;;;;4380369;28;658538;-72
2022/03/10 05:51:55;;;;;;;17.37;7.53;;;-2.50;99.90;;;;;;4396295;28;658955;-72
2022/03/10 05:54:43;;;;;;;18.83;7.60;;;-2.50;1.00;;;;;;4372814;28;661142;-72
2022/03/10 05:57:30;;;;;;;16.67;6.97;;;-2.40;1.00;;;;;;4387608;28;658740;-72
2022/03/10 06:00:18;;;;;;;20.80;7.77;;;-2.30;1.00;;;;;;4373719;28;660359;-72
2022/03/10 06:03:06;;;;;;;22.43;7.70;;;-2.30;99.90;;;;;;4389193;28;658771;-72
2022/03/10 06:05:55;;;;;;;16.00;6.57;;;-2.20;99.90;;;;;;4395257;28;660726;-73
2022/03/10 06:08:43;;;;;;;19.57;6.40;;;-2.20;99.90;;;;;;4376627;28;660028;-72
2022/03/10 06:11:31;;;;;;;17.33;6.40;;;-2.10;99.90;;;;;;4387048;28;659616;-72
2022/03/10 06:14:19;;;;;;;21.23;7.17;;;-2.00;99.90;;;;;;4394895;28;661108;-72
2022/03/10 06:17:06;;;;;;;18.80;6.90;;;-2.00;99.90;;;;;;4376172;28;660122;-72
2022/03/10 06:19:54;;;;;;;16.90;7.67;;;-1.90;99.90;;;;;;4399162;28;660160;-72
2022/03/10 06:22:43;;;;;;;15.40;7.13;;;-1.80;99.90;;;;;;4376324;28;660161;-72
2022/03/10 06:25:30;;;;;;;15.07;6.23;;;-1.80;99.90;;;;;;4394795;28;659637;-72
2022/03/10 06:28:18;;;;;;;15.73;6.60;;;-1.70;99.90;;;;;;4376280;28;659851;-72
2022/03/10 06:31:05;;;;;;;12.73;5.53;;;-1.70;99.90;;;;;;4395136;28;659796;-72
2022/03/10 06:33:53;;;;;;;16.97;6.47;;;-1.60;99.90;;;;;;4371949;28;661116;-72
2022/03/10 06:36:40;;;;;;;17.33;7.67;;;-1.70;99.90;;;;;;4394927;28;659454;-72
2022/03/10 06:39:29;;;;;;;20.50;8.47;;;-1.70;99.10;;;;;;4376201;28;660413;-72
2022/03/10 06:42:17;;;;;;;15.40;6.70;;;-1.60;93.50;;;;;;4375834;28;659543;-72
2022/03/10 06:45:06;;;;;;;26.13;9.37;;;-1.60;34.00;;;;;;4394102;28;660415;-72
2022/03/10 06:47:53;;;;;;;22.93;9.03;;;-1.50;67.20;;;;;;4375328;28;660893;-72
2022/03/10 06:50:41;;;;;;;29.13;9.73;;;-1.40;83.10;;;;;;4391421;28;659975;-72
2022/03/10 06:53:28;;;;;;;29.70;10.67;;;-1.30;20.50;;;;;;4394600;28;661091;-72
2022/03/10 06:56:17;;;;;;;30.03;9.90;;;-1.20;28.30;;;;;;4382403;28;660697;-72
2022/03/10 06:59:05;;;;;;;30.33;10.33;;;-1.00;20.50;;;;;;4384205;28;660074;-72
2022/03/10 07:01:53;;;;;;;26.50;9.43;;;-0.80;8.50;;;;;;4360556;28;662814;-72
2022/03/10 07:04:40;;;;;;;31.30;11.35;;;-0.80;1.00;;;;;;4394873;28;659447;-72
2022/03/10 07:07:27;;;;;;;22.57;7.43;;;-0.80;1.00;;;;;;4370650;28;660767;-72
2022/03/10 07:10:15;;;;;;;14.45;5.95;;;-0.80;1.00;;;;;;4394118;28;659334;-72
2022/03/10 07:13:04;;;;;;;14.07;5.90;;;-0.80;1.00;;;;;;4367208;28;658645;-72
2022/03/10 07:15:51;;;;;;;19.17;8.00;;;-0.80;1.00;;;;;;4367093;28;659144;-72
2022/03/10 07:18:39;;;;;;;17.50;5.20;;;-0.70;1.00;;;;;;4387633;28;659528;-72
2022/03/10 07:21:26;;;;;;;11.77;5.00;;;-0.70;1.00;;;;;;4375896;28;658747;-72
2022/03/10 07:24:14;;;;;;;12.57;3.67;;;-0.70;1.00;;;;;;4385971;28;660316;-72
2022/03/10 07:27:01;;;;;;;15.80;6.00;;;-0.70;1.00;;;;;;4366703;28;658884;-72
2022/03/10 07:29:50;;;;;;;45.67;9.63;;;-0.70;1.00;;;;;;4377100;28;659613;-72
2022/03/10 07:32:38;;;;;;;16.00;6.80;;;-0.60;1.00;;;;;;4372025;28;660415;-72
2022/03/10 07:35:25;;;;;;;11.37;5.00;;;-0.60;1.00;;;;;;4395992;28;658482;-72
2022/03/10 07:38:13;;;;;;;10.30;4.83;;;-0.50;1.00;;;;;;4372346;28;660763;-72
2022/03/10 07:41:00;;;;;;;17.43;6.13;;;-0.40;1.00;;;;;;4390454;28;659112;-72
2022/03/10 07:43:47;;;;;;;15.23;5.70;;;-0.30;1.00;;;;;;4376669;28;660187;-72
2022/03/10 07:46:36;;;;;;;16.95;5.60;;;-0.30;1.00;;;;;;4395241;28;659265;-72
2022/03/10 07:49:24;;;;;;;14.30;5.10;;;-0.30;1.00;;;;;;4372357;28;659983;-73
2022/03/10 07:52:11;;;;;;;11.80;4.87;;;-0.20;1.00;;;;;;4376595;28;658564;-72
2022/03/10 07:54:59;;;;;;;13.45;5.60;;;-0.20;1.00;;;;;;4397287;28;659825;-72
2022/03/10 07:57:47;;;;;;;12.27;5.50;;;-0.10;1.00;;;;;;4379469;28;658891;-72
2022/03/10 08:00:34;;;;;;;9.63;3.80;;;0.10;1.00;;;;;;4398529;28;660173;-72
2022/03/10 08:03:23;;;;;;;6.53;3.90;;;0.30;1.00;;;;;;4382181;28;656799;-72
2022/03/10 08:06:11;;;;;;;10.27;4.57;;;0.40;1.00;;;;;;4392644;28;656761;-72
2022/03/10 08:08:58;;;;;;;10.67;3.70;;;0.50;1.00;;;;;;4402807;28;658655;-72
2022/03/10 08:11:46;;;;;;;53.28;9.82;;;0.50;1.00;;;;;;4380064;28;657621;-71
2022/03/10 08:14:33;;;;;;;66.27;10.83;;;0.70;1.00;;;;;;4399573;28;658842;-71
2022/03/10 08:17:21;;;;;;;42.80;7.50;;;0.80;1.00;;;;;;4380790;28;658735;-71
2022/03/10 08:20:11;;;;;;;18.27;4.80;;;0.90;1.00;;;;;;4403721;28;657971;-72
2022/03/10 08:22:59;;;;;;;23.70;8.50;;;0.90;1.00;;;;;;4376376;28;658384;-72
2022/03/10 08:25:46;;;;;;;13.50;6.40;;;1.00;1.00;;;;;;4379968;28;658115;-72
2022/03/10 08:28:34;;;;;;;9.57;4.13;;;1.10;1.00;;;;;;4402918;28;658643;-71
2022/03/10 08:31:21;;;;;;;7.87;4.17;;;1.20;1.00;;;;;;4381553;28;656972;-71
2022/03/10 08:34:09;;;;;;;11.50;4.38;;;1.20;1.00;;;;;;4400489;28;658560;-71
2022/03/10 08:36:58;;;;;;;6.90;3.73;;;1.20;1.00;;;;;;4380002;28;657462;-71
2022/03/10 08:39:46;;;;;;;9.13;4.43;;;1.30;1.00;;;;;;4387990;28;656142;-71
2022/03/10 08:42:34;;;;;;;7.13;3.70;;;1.30;1.00;;;;;;4403729;28;656738;-71
2022/03/10 08:45:21;;;;;;;14.17;4.03;;;1.40;1.00;;;;;;4381233;28;656731;-71
2022/03/10 08:48:09;;;;;;;19.10;6.37;;;1.30;1.00;;;;;;4402264;28;658290;-71
2022/03/10 08:50:56;;;;;;;20.50;6.43;;;1.50;1.00;;;;;;4379942;28;657735;-71
2022/03/10 08:53:45;;;;;;;14.95;6.07;;;1.80;1.00;;;;;;4399422;28;658282;-71
2022/03/10 08:56:34;;;;;;;8.37;3.97;;;1.80;1.00;;;;;;4379811;28;659052;-71
2022/03/10 08:59:21;;;;;;;8.07;4.00;;;2.10;1.00;;;;;;4381283;28;656635;-71
2022/03/10 09:02:09;;;;;;;6.77;4.10;;;2.20;1.00;;;;;;4401868;28;656774;-71
2022/03/10 09:04:56;;;;;;;6.57;3.60;;;2.50;1.00;;;;;;4380699;28;656458;-71
2022/03/10 09:07:44;;;;;;;9.85;5.13;;;2.90;1.00;;;;;;4401210;28;656586;-72
2022/03/10 09:10:33;;;;;;;10.03;5.07;;;3.10;1.00;;;;;;4380937;28;656615;-71
2022/03/10 09:13:20;;;;;;;11.33;4.13;;;3.40;1.00;;;;;;4398329;28;657430;-71
2022/03/10 09:16:08;;;;;;;20.80;6.37;;;3.60;1.00;;;;;;4375815;28;658788;-72
2022/03/10 09:18:56;;;;;;;16.57;6.30;;;3.90;1.00;;;;;;4398281;28;657661;-72
2022/03/10 09:21:43;;;;;;;12.23;4.90;;;4.00;1.00;;;;;;4379667;28;658260;-72
2022/03/10 09:24:31;;;;;;;6.20;4.00;;;4.30;1.00;;;;;;4388055;28;658006;-72
2022/03/10 09:27:21;;;;;;;10.85;4.40;;;4.50;1.00;;;;;;4399442;28;657980;-71
2022/03/10 09:30:10;;;;;;;10.87;4.50;;;4.40;1.00;;;;;;4376101;28;658747;-71
2022/03/10 09:33:15;;;;;;;11.17;4.53;;;4.60;1.00;;;;;;4375365;28;657125;-71
2022/03/10 09:36:03;;;;;;;12.87;5.77;;;4.60;1.00;;;;;;4352648;28;657864;-71
2022/03/10 09:38:51;;;;;;;12.17;5.03;;;4.60;1.00;;;;;;4396790;28;657667;-72
2022/03/10 09:41:39;;;;;;;10.43;4.73;;;4.50;1.00;;;;;;4402418;28;658184;-71
2022/03/10 09:44:28;;;;;;;10.43;4.93;;;4.60;1.00;;;;;;4379354;28;658150;-71
2022/03/10 09:47:17;;;;;;;6.93;4.13;;;4.70;1.00;;;;;;4387195;28;657579;-72
2022/03/10 09:50:04;;;;;;;10.47;4.07;;;4.50;1.00;;;;;;4399114;28;657931;-72
2022/03/10 09:52:52;;;;;;;13.87;4.87;;;4.60;1.00;;;;;;4379447;28;657609;-72
2022/03/10 09:55:39;;;;;;;8.87;4.70;;;4.60;1.00;;;;;;4397695;28;658923;-72
2022/03/10 09:58:27;;;;;;;10.53;4.33;;;4.60;1.00;;;;;;4380613;28;656454;-71
2022/03/10 10:01:16;;;;;;;8.57;3.97;;;4.60;1.00;;;;;;4397690;28;658436;-71
2022/03/10 10:04:04;;;;;;;11.03;4.13;;;4.50;1.00;;;;;;4376266;28;657593;-71
2022/03/10 10:07:05;;;;;;;13.50;5.87;;;4.40;1.00;;;;;;4378970;28;657474;-71
2022/03/10 10:09:58;;;;;;;21.53;8.13;;;4.40;1.00;;;;;;4351915;28;659465;-71
2022/03/10 10:12:50;;;;;;;11.50;4.83;;;4.40;1.00;;;;;;4367784;28;658097;-71
2022/03/10 10:15:39;;;;;;;14.87;5.63;;;4.40;1.00;;;;;;4374604;28;658707;-71
2022/03/10 10:18:28;;;;;;;20.73;6.30;;;4.60;1.00;;;;;;4378684;28;658144;-71
2022/03/10 10:21:20;;;;;;;11.55;5.05;;;4.90;1.00;;;;;;4382117;28;657723;-71
2022/03/10 10:24:16;;;;;;;9.20;4.47;;;5.30;1.00;;;;;;4375042;28;659098;-71
2022/03/10 10:27:14;;;;;;;7.27;4.40;;;5.20;1.00;;;;;;4376251;28;656789;-71
2022/03/10 10:30:02;;;;;;;7.40;3.80;;;5.50;1.00;;;;;;4354841;28;656257;-71
2022/03/10 10:32:52;;;;;;;7.73;4.30;;;5.50;1.00;;;;;;4399869;28;656790;-71
2022/03/10 10:35:48;;;;;;;8.33;4.70;;;5.80;1.00;;;;;;4375752;28;656878;-71
2022/03/10 10:38:40;;;;;;;8.87;4.03;;;6.20;1.00;;;;;;4376016;28;656686;-71
2022/03/10 10:41:33;;;;;;;8.07;4.13;;;6.50;1.00;;;;;;4353009;28;656753;-71
2022/03/10 10:44:23;;;;;;;10.70;5.07;;;6.40;1.00;;;;;;4356460;28;657038;-71
2022/03/10 10:47:13;;;;;;;17.07;7.57;;;6.20;1.00;;;;;;4389185;28;657590;-71
2022/03/10 10:50:07;;;;;;;14.67;5.73;;;6.20;1.00;;;;;;4378519;28;657322;-71
2022/03/10 10:52:59;;;;;;;8.03;4.50;;;6.20;1.00;;;;;;4373638;28;658764;-71
2022/03/10 10:55:55;;;;;;;8.93;4.30;;;6.60;1.00;;;;;;4355747;28;656574;-71
2022/03/10 10:58:50;;;;;;;11.33;5.03;;;6.80;1.00;;;;;;4352511;28;657982;-71
2022/03/10 11:01:43;;;;;;;9.77;5.17;;;6.90;1.00;;;;;;4351298;28;658524;-71
2022/03/10 11:04:32;;;;;;;6.90;3.67;;;6.70;1.00;;;;;;4365234;28;656553;-71
2022/03/10 11:07:30;;;;;;;7.37;3.50;;;6.90;1.00;;;;;;4398456;28;656838;-71
2022/03/10 11:10:28;;;;;;;12.15;4.80;;;7.10;1.00;;;;;;4352784;28;657262;-71
2022/03/10 11:13:21;;;;;;;14.90;6.10;;;7.40;1.00;;;;;;4355640;28;658818;-71
2022/03/10 11:16:13;;;;;;;11.53;4.70;;;7.40;1.00;;;;;;4374149;28;658834;-71
2022/03/10 11:19:06;;;;;;;15.83;6.07;;;7.50;1.00;;;;;;4374294;28;657393;-72
2022/03/10 11:22:16;;;;;;;13.10;5.90;;;7.70;1.00;;;;;;4351214;28;658855;-71
2022/03/10 11:25:41;;;;;;;7.20;4.30;;;7.80;1.00;;;;;;4348011;28;658202;-71
2022/03/10 11:28:32;;;;;;;15.93;4.57;;;8.00;1.00;;;;;;4352903;28;657935;-71
2022/03/10 11:31:25;;;;;;;8.98;4.28;;;8.10;1.00;;;;;;4377201;28;658880;-71
2022/03/10 11:34:55;;;;;;;10.77;4.33;;;8.10;1.00;;;;;;4355767;28;657187;-71
2022/03/10 11:38:01;;;;;;;8.50;4.20;;;7.70;1.00;;;;;;4358375;28;657655;-71
2022/03/10 11:40:52;;;;;;;11.27;5.03;;;7.80;1.00;;;;;;4355586;28;657081;-71
2022/03/10 11:43:43;;;;;;;19.65;5.65;;;8.30;1.00;;;;;;4377098;28;658305;-71
2022/03/10 11:46:34;;;;;;;11.67;5.33;;;8.50;1.00;;;;;;4358338;28;657826;-71
2022/03/10 11:49:31;;;;;;;6.67;3.90;;;8.30;1.00;;;;;;4381278;28;657561;-71
2022/03/10 11:52:24;;;;;;;9.73;4.33;;;8.10;1.00;;;;;;4355536;28;656575;-71
2022/03/10 11:55:17;;;;;;;9.87;4.43;;;8.00;1.00;;;;;;4359598;28;656891;-71
2022/03/10 11:58:15;;;;;;;11.63;5.33;;;8.00;1.00;;;;;;4381793;28;656189;-71
2022/03/10 12:01:07;;;;;;;10.37;4.80;;;8.10;1.00;;;;;;4379826;28;658653;-71
2022/03/10 12:04:06;;;;;;;7.73;4.33;;;8.20;1.00;;;;;;4377060;28;658756;-71
2022/03/10 12:06:56;;;;;;;6.13;3.70;;;8.20;1.00;;;;;;4378139;28;657231;-71
2022/03/10 12:09:43;;;;;;;7.23;3.77;;;8.30;1.00;;;;;;4377780;28;657402;-71
2022/03/10 12:12:32;;;;;;;14.17;7.13;;;8.50;1.00;;;;;;4384994;28;656872;-71
2022/03/10 12:15:51;;;;;;;21.20;10.67;;;8.40;1.00;;;;;;4399900;28;658230;-71
2022/03/10 12:18:43;;;;;;;8.50;4.57;;;8.70;1.00;;;;;;4375513;28;658952;-71
2022/03/10 12:21:31;;;;;;;8.00;3.67;;;8.90;1.00;;;;;;4377793;28;656120;-71
2022/03/10 12:24:18;;;;;;;7.22;4.03;;;9.70;1.00;;;;;;4382046;28;656838;-71
2022/03/10 12:27:06;;;;;;;13.50;7.37;;;10.20;1.00;;;;;;4395160;28;656824;-71
2022/03/10 12:29:54;;;;;;;14.57;7.53;;;10.50;1.00;;;;;;4398142;28;660235;-71
2022/03/10 12:32:43;;;;;;;7.43;4.37;;;10.60;1.00;;;;;;4379221;28;658550;-71
2022/03/10 12:35:32;;;;;;;8.07;4.53;;;10.80;1.00;;;;;;4394864;28;657599;-71
2022/03/10 12:38:19;;;;;;;6.33;3.83;;;10.80;1.00;;;;;;4399022;28;658395;-71
2022/03/10 12:41:07;;;;;;;9.90;5.40;;;10.50;1.00;;;;;;4380088;28;658000;-71
2022/03/10 12:43:55;;;;;;;9.37;4.97;;;10.60;1.00;;;;;;4399157;28;658536;-71
2022/03/10 12:46:43;;;;;;;8.60;4.40;;;10.30;1.00;;;;;;4380080;28;657903;-71
2022/03/10 12:49:36;;;;;;;39.17;11.37;;;9.70;1.00;;;;;;4399027;28;658273;-71
2022/03/10 12:52:27;;;;;;;7.77;4.30;;;10.00;1.00;;;;;;4374766;28;658859;-71
2022/03/10 12:55:15;;;;;;;15.97;7.93;;;10.20;1.00;;;;;;4374463;28;658337;-71
2022/03/10 12:58:02;;;;;;;8.80;4.93;;;10.30;1.00;;;;;;4376652;28;658834;-71
2022/03/10 13:00:50;;;;;;;6.90;3.93;;;10.20;1.00;;;;;;4398678;28;657429;-71
2022/03/10 13:03:38;;;;;;;15.23;6.53;;;10.60;1.00;;;;;;4375952;28;659312;-71
2022/03/10 13:06:29;;;;;;;19.13;6.77;;;10.60;1.00;;;;;;4394291;28;659155;-71
2022/03/10 13:09:22;;;;;;;7.35;4.20;;;10.50;1.00;;;;;;4378233;28;658717;-71
2022/03/10 13:12:10;;;;;;;7.93;4.50;;;10.60;1.00;;;;;;4375902;28;657638;-71
2022/03/10 13:14:58;;;;;;;10.17;5.00;;;10.10;1.00;;;;;;4375760;28;657504;-71
2022/03/10 13:17:45;;;;;;;8.97;4.67;;;10.10;1.00;;;;;;4397472;28;658625;-71
2022/03/10 13:20:35;;;;;;;6.83;4.30;;;10.50;1.00;;;;;;4379587;28;658134;-71
2022/03/10 13:23:28;;;;;;;11.07;4.33;;;10.30;1.00;;;;;;4375672;28;658896;-71
2022/03/10 13:26:20;;;;;;;14.83;5.90;;;10.40;1.00;;;;;;4374355;28;659001;-71
2022/03/10 13:29:08;;;;;;;13.70;4.77;;;10.80;1.00;;;;;;4351426;28;659315;-71
2022/03/10 13:31:55;;;;;;;18.90;6.10;;;11.20;1.00;;;;;;4397195;28;658171;-71
2022/03/10 13:34:43;;;;;;;17.53;6.10;;;10.70;1.00;;;;;;4374140;28;659601;-71
2022/03/10 13:37:31;;;;;;;12.13;4.93;;;11.40;1.00;;;;;;4382718;28;659129;-71
2022/03/10 13:40:20;;;;;;;7.70;3.97;;;11.80;1.00;;;;;;4400567;28;659497;-71
2022/03/10 13:43:08;;;;;;;9.87;4.50;;;12.20;1.00;;;;;;4375121;28;658686;-71
2022/03/10 13:45:56;;;;;;;10.03;4.63;;;12.20;1.00;;;;;;4390983;28;657426;-71
2022/03/10 13:48:46;;;;;;;12.47;4.73;;;12.30;1.00;;;;;;4397120;28;660269;-71
2022/03/10 13:51:36;;;;;;;8.53;4.20;;;12.70;1.00;;;;;;4377619;28;658896;-71
2022/03/10 13:54:28;;;;;;;12.77;5.77;;;13.40;1.00;;;;;;4375317;28;658060;-71
2022/03/10 13:57:17;;;;;;;12.83;5.30;;;13.50;1.00;;;;;;4373741;28;658898;-71
2022/03/10 14:00:06;;;;;;;9.70;5.10;;;13.70;1.00;;;;;;4373755;28;658829;-71
2022/03/10 14:02:54;;;;;;;8.13;4.33;;;14.50;1.00;;;;;;4377338;28;658123;-71
2022/03/10 14:05:42;;;;;;;13.07;6.43;;;15.10;1.00;;;;;;4379009;28;657559;-71
2022/03/10 14:08:30;;;;;;;13.30;5.87;;;15.30;1.00;;;;;;4395238;28;658793;-71
2022/03/10 14:11:18;;;;;;;21.03;7.87;;;15.90;1.00;;;;;;4373901;28;659525;-72
2022/03/10 14:14:07;;;;;;;19.30;7.77;;;17.40;1.00;;;;;;4377337;28;659050;-71
2022/03/10 14:16:55;;;;;;;20.07;7.07;;;18.00;1.00;;;;;;4395813;28;658989;-71
2022/03/10 14:19:43;;;;;;;20.60;8.00;;;18.30;1.00;;;;;;4377559;28;659292;-71
2022/03/10 14:22:30;;;;;;;13.43;5.50;;;18.80;1.00;;;;;;4396372;28;658785;-71
2022/03/10 14:25:18;;;;;;;10.97;5.90;;;18.60;1.00;;;;;;4373448;28;660473;-71
2022/03/10 14:28:08;;;;;;;11.67;5.37;;;19.70;1.00;;;;;;4396244;28;659296;-71
2022/03/10 14:30:57;;;;;;;12.37;5.70;;;20.30;1.00;;;;;;4373484;28;658748;-71
2022/03/10 14:33:45;;;;;;;12.60;5.60;;;20.50;1.00;;;;;;4373532;28;660030;-71
2022/03/10 14:36:33;;;;;;;14.50;5.63;;;20.90;1.00;;;;;;4373286;28;660410;-71
2022/03/10 14:39:21;;;;;;;10.47;4.40;;;20.70;1.00;;;;;;4396261;28;658247;-71
2022/03/10 14:42:09;;;;;;;10.80;6.20;;;20.40;1.00;;;;;;4373209;28;659323;-71
2022/03/10 14:44:56;;;;;;;11.63;6.20;;;20.70;1.00;;;;;;4377161;28;658268;-71